createdAt,value
2017-10-25T00:01:05.113Z,15.86
2017-10-25T00:03:32.539Z,15.86
2017-10-25T00:06:00.330Z,15.83
2017-10-25T00:08:27.763Z,15.75
2017-10-25T00:10:55.172Z,15.84
2017-10-25T00:13:22.608Z,15.74
2017-10-25T00:15:50.025Z,15.72
2017-10-25T00:18:17.445Z,15.73
2017-10-25T00:20:44.863Z,15.68
2017-10-25T00:23:12.329Z,15.76
2017-10-25T00:25:39.741Z,15.79
2017-10-25T00:28:07.202Z,15.76
2017-10-25T00:30:34.587Z,15.81
2017-10-25T00:33:02.022Z,15.77
2017-10-25T00:35:29.440Z,15.73
2017-10-25T00:37:56.837Z,15.73
2017-10-25T00:40:24.317Z,15.74
2017-10-25T00:42:51.715Z,15.77
2017-10-25T00:45:19.164Z,15.77
2017-10-25T00:47:46.628Z,15.80
2017-10-25T00:50:14.077Z,15.77
2017-10-25T00:52:41.502Z,15.78
2017-10-25T00:55:08.932Z,15.75
2017-10-25T00:57:36.341Z,15.70
2017-10-25T01:00:03.765Z,15.69
2017-10-25T01:02:31.192Z,15.70
2017-10-25T01:04:58.627Z,15.72
2017-10-25T01:07:26.099Z,15.73
2017-10-25T01:09:53.490Z,15.77
2017-10-25T01:12:20.945Z,15.78
2017-10-25T01:14:48.379Z,15.79
2017-10-25T01:17:16.413Z,15.82
2017-10-25T01:19:43.819Z,15.83
2017-10-25T01:22:11.253Z,15.78
2017-10-25T01:24:38.675Z,15.78
2017-10-25T01:27:06.079Z,15.72
2017-10-25T01:29:33.543Z,15.67
2017-10-25T01:32:00.969Z,15.70
2017-10-25T01:34:28.362Z,15.68
2017-10-25T01:36:55.794Z,15.70
2017-10-25T01:39:23.227Z,15.71
2017-10-25T01:41:50.649Z,15.71
2017-10-25T01:44:18.091Z,15.77
2017-10-25T01:46:45.506Z,15.80
2017-10-25T01:49:12.955Z,15.75
2017-10-25T01:51:40.366Z,15.82
2017-10-25T01:54:07.783Z,15.79
2017-10-25T01:56:35.203Z,15.79
2017-10-25T01:59:02.654Z,15.68
2017-10-25T02:01:30.048Z,15.76
2017-10-25T02:03:57.488Z,15.80
2017-10-25T02:06:24.927Z,15.82
2017-10-25T02:08:52.408Z,15.76
2017-10-25T02:11:19.828Z,15.84
2017-10-25T02:13:47.234Z,15.83
2017-10-25T02:16:14.719Z,15.82
2017-10-25T02:18:42.137Z,15.79
2017-10-25T02:21:09.567Z,15.80
2017-10-25T02:23:36.981Z,15.83
2017-10-25T02:26:04.411Z,15.83
2017-10-25T02:28:31.819Z,15.82
2017-10-25T02:30:59.263Z,15.79
2017-10-25T02:33:26.682Z,15.83
2017-10-25T02:35:54.088Z,15.78
2017-10-25T02:38:21.543Z,15.80
2017-10-25T02:40:48.951Z,15.84
2017-10-25T02:43:16.421Z,15.71
2017-10-25T02:45:43.837Z,15.82
2017-10-25T02:48:12.183Z,15.81
2017-10-25T02:50:39.568Z,15.83
2017-10-25T02:53:07.022Z,15.78
2017-10-25T02:55:34.477Z,15.79
2017-10-25T02:58:01.903Z,15.81
2017-10-25T03:00:29.313Z,15.79
2017-10-25T03:02:56.749Z,15.83
2017-10-25T03:05:24.196Z,15.86
2017-10-25T03:07:51.595Z,15.86
2017-10-25T03:10:19.053Z,15.85
2017-10-25T03:12:46.444Z,15.82
2017-10-25T03:15:13.922Z,15.79
2017-10-25T03:17:41.308Z,15.76
2017-10-25T03:20:08.762Z,15.75
2017-10-25T03:22:36.188Z,15.79
2017-10-25T03:25:03.628Z,15.83
2017-10-25T03:27:31.040Z,15.83
2017-10-25T03:29:58.456Z,15.84
2017-10-25T03:32:25.892Z,15.82
2017-10-25T03:34:53.331Z,15.84
2017-10-25T03:37:20.759Z,15.80
2017-10-25T03:39:48.160Z,15.75
2017-10-25T03:42:15.595Z,15.79
2017-10-25T03:44:43.024Z,15.73
2017-10-25T03:47:10.450Z,15.75
2017-10-25T03:49:37.894Z,15.75
2017-10-25T03:52:05.296Z,15.71
2017-10-25T03:54:32.773Z,15.74
2017-10-25T03:57:00.184Z,15.79
2017-10-25T03:59:27.637Z,15.80
2017-10-25T04:01:55.019Z,15.82
2017-10-25T04:04:22.481Z,15.82
2017-10-25T04:06:50.731Z,15.87
2017-10-25T04:09:18.181Z,15.88
2017-10-25T04:11:45.575Z,15.92
2017-10-25T04:14:13.024Z,15.92
2017-10-25T04:16:40.452Z,15.84
2017-10-25T04:19:07.856Z,15.86
2017-10-25T04:21:35.288Z,15.91
2017-10-25T04:24:02.735Z,15.92
2017-10-25T04:26:30.184Z,15.92
2017-10-25T04:28:57.601Z,15.87
2017-10-25T04:31:25.021Z,15.85
2017-10-25T04:33:52.473Z,15.84
2017-10-25T04:36:19.884Z,15.87
2017-10-25T04:38:47.303Z,15.86
2017-10-25T04:41:14.726Z,15.85
2017-10-25T04:43:42.155Z,15.85
2017-10-25T04:46:09.547Z,15.84
2017-10-25T04:48:37.025Z,15.88
2017-10-25T04:51:04.422Z,15.86
2017-10-25T04:53:31.845Z,15.78
2017-10-25T04:55:59.277Z,15.82
2017-10-25T04:58:26.724Z,15.44
2017-10-25T05:00:54.150Z,15.81
2017-10-25T05:03:21.588Z,15.84
2017-10-25T05:05:49.023Z,15.84
2017-10-25T05:08:16.455Z,15.90
2017-10-25T05:10:43.856Z,15.94
2017-10-25T05:13:11.308Z,15.92
2017-10-25T05:15:38.722Z,15.96
2017-10-25T05:18:06.184Z,15.89
2017-10-25T05:20:33.605Z,15.96
2017-10-25T05:23:01.137Z,15.96
2017-10-25T05:25:28.563Z,15.94
2017-10-25T05:27:55.992Z,15.90
2017-10-25T05:30:23.441Z,15.85
2017-10-25T05:32:50.824Z,15.88
2017-10-25T05:35:18.280Z,15.87
2017-10-25T05:37:45.721Z,15.87
2017-10-25T05:40:13.103Z,15.81
2017-10-25T05:42:40.549Z,15.81
2017-10-25T05:45:07.957Z,15.82
2017-10-25T05:47:35.383Z,15.85
2017-10-25T05:50:02.803Z,15.88
2017-10-25T05:52:30.200Z,15.87
2017-10-25T05:54:58.474Z,15.93
2017-10-25T05:57:25.928Z,15.94
2017-10-25T05:59:53.357Z,15.94
2017-10-25T06:02:20.821Z,15.94
2017-10-25T06:04:48.217Z,15.91
2017-10-25T06:07:15.642Z,15.91
2017-10-25T06:09:43.060Z,15.90
2017-10-25T06:12:10.501Z,15.95
2017-10-25T06:14:37.972Z,15.91
2017-10-25T06:17:05.412Z,15.87
2017-10-25T06:19:32.797Z,15.82
2017-10-25T06:22:00.214Z,15.85
2017-10-25T06:24:27.810Z,15.71
2017-10-25T06:26:55.192Z,15.80
2017-10-25T06:29:23.305Z,15.83
2017-10-25T06:31:50.696Z,15.82
2017-10-25T06:34:18.171Z,15.73
2017-10-25T06:36:45.570Z,15.83
2017-10-25T06:39:12.999Z,15.84
2017-10-25T06:41:40.525Z,15.84
2017-10-25T06:44:07.947Z,15.83
2017-10-25T06:46:35.363Z,15.86
2017-10-25T06:49:02.805Z,15.91
2017-10-25T06:51:30.241Z,15.96
2017-10-25T06:53:57.676Z,15.91
2017-10-25T06:56:25.121Z,15.85
2017-10-25T06:58:52.512Z,15.86
2017-10-25T07:01:19.975Z,15.83
2017-10-25T07:03:47.441Z,15.92
2017-10-25T07:06:14.878Z,15.89
2017-10-25T07:08:42.280Z,15.92
2017-10-25T07:11:09.723Z,15.95
2017-10-25T07:13:37.122Z,16.01
2017-10-25T07:16:05.448Z,16.01
2017-10-25T07:18:32.905Z,16.04
2017-10-25T07:21:00.318Z,16.05
2017-10-25T07:23:27.731Z,16.11
2017-10-25T07:25:55.124Z,16.12
2017-10-25T07:28:22.569Z,16.12
2017-10-25T07:30:49.969Z,16.15
2017-10-25T07:33:17.417Z,16.12
2017-10-25T07:35:44.876Z,16.11
2017-10-25T07:38:12.292Z,16.08
2017-10-25T07:40:39.688Z,15.78
2017-10-25T07:43:07.113Z,16.08
2017-10-25T07:45:34.533Z,16.05
2017-10-25T07:48:01.986Z,16.08
2017-10-25T07:50:29.383Z,16.08
2017-10-25T07:52:56.788Z,16.11
2017-10-25T07:55:24.218Z,16.12
2017-10-25T07:57:51.704Z,16.11
2017-10-25T08:00:19.148Z,16.19
2017-10-25T08:02:46.565Z,16.13
2017-10-25T08:05:14.050Z,16.15
2017-10-25T08:07:41.525Z,16.22
2017-10-25T08:10:08.984Z,16.25
2017-10-25T08:12:36.415Z,16.32
2017-10-25T08:15:03.841Z,16.33
2017-10-25T08:17:31.233Z,16.33
2017-10-25T08:19:58.685Z,16.37
2017-10-25T08:22:26.084Z,16.35
2017-10-25T08:24:53.501Z,16.39
2017-10-25T08:27:20.952Z,16.43
2017-10-25T08:29:48.384Z,16.43
2017-10-25T08:32:15.844Z,16.40
2017-10-25T08:34:43.248Z,16.43
2017-10-25T08:37:11.403Z,16.47
2017-10-25T08:39:38.830Z,16.50
2017-10-25T08:42:06.287Z,16.50
2017-10-25T08:44:33.803Z,16.58
2017-10-25T08:47:01.236Z,16.65
2017-10-25T08:49:28.680Z,16.68
2017-10-25T08:51:56.109Z,16.65
2017-10-25T08:54:23.557Z,16.71
2017-10-25T08:56:50.988Z,16.76
2017-10-25T08:59:19.711Z,16.84
2017-10-25T09:01:53.153Z,16.90
2017-10-25T09:04:21.652Z,16.89
2017-10-25T09:06:49.184Z,16.99
2017-10-25T09:09:29.165Z,17.06
2017-10-25T09:11:56.655Z,17.07
2017-10-25T09:14:28.790Z,17.11
2017-10-25T09:16:57.697Z,17.08
2017-10-25T09:19:26.236Z,17.15
2017-10-25T09:21:54.556Z,17.19
2017-10-25T09:24:21.963Z,17.17
2017-10-25T09:26:49.487Z,17.20
2017-10-25T09:29:16.896Z,17.24
2017-10-25T09:31:44.314Z,17.24
2017-10-25T09:34:11.700Z,17.25
2017-10-25T09:36:39.829Z,17.24
2017-10-25T09:39:07.221Z,17.47
2017-10-25T09:41:34.675Z,17.54
2017-10-25T09:44:02.110Z,17.66
2017-10-25T09:46:29.629Z,17.62
2017-10-25T09:48:57.040Z,17.67
2017-10-25T09:51:25.018Z,17.68
2017-10-25T09:53:52.482Z,17.76
2017-10-25T09:56:21.448Z,17.83
2017-10-25T09:58:48.891Z,17.86
2017-10-25T10:01:16.279Z,17.87
2017-10-25T10:03:44.000Z,17.82
2017-10-25T10:06:11.393Z,17.78
2017-10-25T10:08:38.796Z,17.78
2017-10-25T10:11:06.216Z,17.79
2017-10-25T10:13:33.640Z,17.83
2017-10-25T10:16:02.331Z,17.87
2017-10-25T10:18:29.781Z,17.75
2017-10-25T10:20:57.208Z,17.79
2017-10-25T10:23:24.664Z,17.87
2017-10-25T10:25:52.079Z,17.95
2017-10-25T10:28:19.510Z,18.08
2017-10-25T10:30:46.943Z,18.08
2017-10-25T10:33:14.348Z,18.04
2017-10-25T10:35:41.774Z,18.06
2017-10-25T10:38:09.269Z,18.05
2017-10-25T10:40:36.651Z,18.02
2017-10-25T10:43:04.152Z,18.01
2017-10-25T10:45:31.567Z,17.78
2017-10-25T10:47:58.989Z,17.79
2017-10-25T10:50:26.385Z,17.79
2017-10-25T10:52:53.805Z,17.80
2017-10-25T10:55:21.225Z,17.87
2017-10-25T10:57:48.658Z,17.82
2017-10-25T11:00:16.959Z,17.83
2017-10-25T11:02:44.421Z,17.87
2017-10-25T11:05:11.837Z,17.85
2017-10-25T11:07:39.256Z,17.82
2017-10-25T11:10:06.717Z,17.84
2017-10-25T11:12:34.127Z,17.84
2017-10-25T11:15:01.565Z,17.82
2017-10-25T11:17:28.975Z,17.90
2017-10-25T11:19:56.424Z,17.98
2017-10-25T11:22:23.838Z,17.85
2017-10-25T11:24:51.259Z,17.85
2017-10-25T11:27:18.643Z,17.85
2017-10-25T11:29:46.065Z,17.88
2017-10-25T11:32:13.493Z,18.01
2017-10-25T11:34:40.944Z,18.05
2017-10-25T11:37:08.385Z,18.05
2017-10-25T11:39:35.773Z,18.00
2017-10-25T11:42:03.227Z,18.08
2017-10-25T11:44:30.650Z,18.22
2017-10-25T11:46:58.142Z,18.34
2017-10-25T11:49:25.545Z,18.52
2017-10-25T11:51:52.962Z,18.65
2017-10-25T11:54:20.372Z,18.78
2017-10-25T11:56:47.835Z,18.79
2017-10-25T11:59:15.214Z,18.69
2017-10-25T12:01:42.638Z,18.57
2017-10-25T12:04:10.109Z,18.59
2017-10-25T12:06:37.788Z,18.57
2017-10-25T12:09:05.254Z,18.54
2017-10-25T12:11:32.705Z,18.58
2017-10-25T12:14:00.160Z,18.57
2017-10-25T12:16:27.543Z,18.53
2017-10-25T12:18:55.040Z,18.60
2017-10-25T12:21:22.529Z,18.57
2017-10-25T12:23:49.918Z,18.46
2017-10-25T12:26:17.346Z,18.45
2017-10-25T12:28:44.768Z,18.53
2017-10-25T12:31:12.761Z,18.57
2017-10-25T12:33:40.215Z,18.43
2017-10-25T12:36:07.641Z,18.46
2017-10-25T12:38:35.057Z,18.68
2017-10-25T12:41:02.664Z,18.85
2017-10-25T12:43:30.060Z,18.84
2017-10-25T12:45:57.488Z,18.71
2017-10-25T12:48:24.926Z,18.52
2017-10-25T12:50:52.360Z,18.55
2017-10-25T12:53:19.791Z,18.52
2017-10-25T12:55:47.201Z,18.45
2017-10-25T12:58:14.636Z,18.26
2017-10-25T13:00:42.069Z,18.30
2017-10-25T13:03:09.539Z,18.41
2017-10-25T13:05:36.981Z,18.49
2017-10-25T13:08:04.416Z,18.61
2017-10-25T13:10:45.853Z,18.74
2017-10-25T13:13:25.968Z,18.90
2017-10-25T13:16:17.707Z,18.88
2017-10-25T13:18:45.151Z,18.81
2017-10-25T13:21:12.575Z,18.81
2017-10-25T13:23:40.052Z,18.78
2017-10-25T13:26:07.536Z,18.80
2017-10-25T13:28:34.968Z,18.72
2017-10-25T13:31:02.397Z,18.65
2017-10-25T13:33:29.825Z,18.65
2017-10-25T13:35:57.285Z,18.53
2017-10-25T13:38:24.704Z,18.45
2017-10-25T13:40:52.098Z,18.46
2017-10-25T13:43:19.552Z,18.37
2017-10-25T13:45:47.012Z,18.45
2017-10-25T13:48:14.497Z,18.50
2017-10-25T13:50:42.032Z,18.44
2017-10-25T13:53:09.473Z,18.42
2017-10-25T13:55:37.807Z,18.35
2017-10-25T13:58:05.217Z,18.35
2017-10-25T14:00:32.787Z,18.31
2017-10-25T14:03:00.207Z,18.41
2017-10-25T14:05:27.660Z,18.55
2017-10-25T14:07:55.100Z,18.63
2017-10-25T14:10:22.559Z,18.62
2017-10-25T14:12:50.260Z,18.61
2017-10-25T14:15:17.704Z,18.65
2017-10-25T14:17:45.151Z,18.53
2017-10-25T14:20:12.552Z,18.46
2017-10-25T14:22:39.984Z,18.40
2017-10-25T14:25:07.447Z,18.35
2017-10-25T14:27:46.683Z,18.46
2017-10-25T14:30:14.088Z,18.27
2017-10-25T14:32:41.543Z,18.28
2017-10-25T14:35:08.957Z,18.33
2017-10-25T14:37:36.423Z,18.32
2017-10-25T14:40:04.027Z,18.30
2017-10-25T14:42:31.495Z,18.29
2017-10-25T14:44:59.235Z,18.23
2017-10-25T14:47:26.673Z,18.12
2017-10-25T14:49:54.567Z,18.17
2017-10-25T14:52:22.037Z,18.03
2017-10-25T14:54:49.467Z,17.96
2017-10-25T14:57:16.902Z,17.78
2017-10-25T14:59:44.320Z,17.91
2017-10-25T15:02:11.753Z,17.92
2017-10-25T15:04:39.269Z,17.88
2017-10-25T15:07:06.707Z,17.87
2017-10-25T15:09:34.119Z,17.74
2017-10-25T15:12:01.583Z,17.72
2017-10-25T15:14:28.997Z,17.68
2017-10-25T15:16:56.450Z,17.66
2017-10-25T15:19:23.943Z,17.64
2017-10-25T15:21:51.396Z,17.62
2017-10-25T15:24:18.935Z,17.67
2017-10-25T15:26:47.097Z,17.56
2017-10-25T15:29:14.531Z,17.58
2017-10-25T15:31:43.613Z,17.52
2017-10-25T15:34:12.464Z,17.58
2017-10-25T15:36:40.641Z,17.67
2017-10-25T15:39:08.120Z,17.53
2017-10-25T15:41:35.625Z,17.48
2017-10-25T15:44:03.050Z,17.37
2017-10-25T15:46:30.490Z,17.33
2017-10-25T15:48:57.900Z,17.31
2017-10-25T15:51:25.300Z,17.33
2017-10-25T15:53:52.892Z,17.41
2017-10-25T15:56:20.313Z,17.41
2017-10-25T15:58:47.823Z,17.38
2017-10-25T16:01:15.241Z,17.39
2017-10-25T16:03:42.684Z,17.39
2017-10-25T16:06:10.141Z,17.40
2017-10-25T16:08:37.595Z,17.38
2017-10-25T16:11:05.070Z,17.25
2017-10-25T16:13:32.495Z,17.21
2017-10-25T16:15:59.924Z,17.13
2017-10-25T16:18:27.398Z,17.17
2017-10-25T16:20:54.823Z,17.13
2017-10-25T16:23:22.224Z,17.19
2017-10-25T16:25:50.561Z,17.20
2017-10-25T16:28:17.991Z,17.16
2017-10-25T16:30:45.465Z,16.70
2017-10-25T16:33:12.892Z,17.00
2017-10-25T16:35:40.359Z,16.97
2017-10-25T16:38:07.784Z,16.98
2017-10-25T16:40:35.209Z,16.99
2017-10-25T16:43:02.682Z,16.91
2017-10-25T16:45:30.951Z,16.89
2017-10-25T16:47:59.272Z,16.83
2017-10-25T16:50:26.671Z,16.88
2017-10-25T16:52:54.128Z,16.92
2017-10-25T16:55:21.560Z,16.82
2017-10-25T16:57:48.980Z,16.84
2017-10-25T17:00:16.490Z,16.70
2017-10-25T17:02:43.914Z,16.62
2017-10-25T17:05:11.361Z,16.54
2017-10-25T17:07:38.768Z,16.57
2017-10-25T17:10:06.203Z,16.54
2017-10-25T17:12:33.617Z,16.53
2017-10-25T17:15:01.126Z,16.50
2017-10-25T17:17:28.536Z,16.43
2017-10-25T17:19:56.778Z,16.48
2017-10-25T17:22:24.230Z,16.41
2017-10-25T17:24:51.634Z,16.45
2017-10-25T17:27:19.074Z,16.49
2017-10-25T17:29:46.483Z,16.48
2017-10-25T17:32:13.957Z,16.47
2017-10-25T17:34:41.366Z,16.47
2017-10-25T17:37:08.872Z,16.43
2017-10-25T17:39:36.299Z,16.38
2017-10-25T17:42:03.723Z,16.36
2017-10-25T17:44:31.168Z,16.35
2017-10-25T17:46:58.618Z,16.28
2017-10-25T17:49:26.080Z,16.15
2017-10-25T17:51:53.505Z,16.10
2017-10-25T17:54:20.977Z,16.11
2017-10-25T17:56:48.392Z,16.13
2017-10-25T17:59:15.834Z,16.16
2017-10-25T18:01:43.258Z,16.15
2017-10-25T18:04:10.756Z,16.14
2017-10-25T18:06:38.219Z,16.15
2017-10-25T18:09:05.637Z,16.13
2017-10-25T18:11:33.089Z,16.08
2017-10-25T18:14:00.476Z,16.00
2017-10-25T18:16:27.941Z,15.92
2017-10-25T18:18:55.381Z,15.84
2017-10-25T18:21:22.779Z,15.84
2017-10-25T18:23:50.564Z,15.85
2017-10-25T18:26:17.972Z,15.80
2017-10-25T18:28:45.409Z,15.78
2017-10-25T18:31:13.173Z,15.77
2017-10-25T18:33:40.616Z,15.77
2017-10-25T18:36:08.173Z,16.16
2017-10-25T18:38:35.646Z,16.51
2017-10-25T18:41:03.234Z,16.74
2017-10-25T18:43:30.671Z,16.83
2017-10-25T18:45:58.214Z,16.93
2017-10-25T18:48:25.644Z,17.03
2017-10-25T18:50:53.957Z,17.03
2017-10-25T18:53:21.361Z,17.12
2017-10-25T18:55:48.829Z,17.15
2017-10-25T18:58:16.328Z,17.26
2017-10-25T19:00:43.753Z,17.26
2017-10-25T19:03:11.191Z,17.23
2017-10-25T19:05:39.356Z,17.23
2017-10-25T19:08:06.953Z,17.09
2017-10-25T19:10:34.633Z,16.47
2017-10-25T19:13:02.214Z,16.03
2017-10-25T19:15:29.735Z,15.64
2017-10-25T19:17:57.819Z,15.55
2017-10-25T19:20:25.277Z,15.32
2017-10-25T19:22:52.675Z,15.15
2017-10-25T19:25:20.130Z,15.02
2017-10-25T19:27:47.537Z,14.94
2017-10-25T19:30:14.998Z,14.86
2017-10-25T19:32:42.438Z,14.78
2017-10-25T19:35:09.925Z,14.58
2017-10-25T19:37:37.366Z,14.63
2017-10-25T19:40:04.836Z,14.60
2017-10-25T19:42:32.281Z,14.58
2017-10-25T19:44:59.695Z,14.47
2017-10-25T19:47:27.164Z,14.43
2017-10-25T19:49:54.572Z,14.48
2017-10-25T19:52:22.004Z,14.44
2017-10-25T19:54:49.431Z,14.27
2017-10-25T19:57:16.863Z,14.21
2017-10-25T19:59:44.378Z,14.20
2017-10-25T20:02:11.769Z,14.18
2017-10-25T20:04:39.258Z,14.11
2017-10-25T20:07:06.719Z,14.05
2017-10-25T20:09:34.141Z,14.02
2017-10-25T20:12:01.565Z,13.95
2017-10-25T20:14:29.863Z,13.83
2017-10-25T20:16:57.356Z,13.83
2017-10-25T20:19:24.825Z,13.84
2017-10-25T20:21:52.282Z,13.76
2017-10-25T20:24:19.761Z,13.87
2017-10-25T20:26:47.188Z,13.86
2017-10-25T20:29:14.660Z,13.80
2017-10-25T20:31:42.052Z,13.78
2017-10-25T20:34:09.509Z,13.74
2017-10-25T20:36:36.945Z,13.74
2017-10-25T20:39:04.388Z,13.66
2017-10-25T20:41:31.830Z,13.60
2017-10-25T20:43:59.244Z,13.61
2017-10-25T20:46:26.660Z,13.57
2017-10-25T20:48:54.116Z,13.40
2017-10-25T20:51:21.561Z,13.41
2017-10-25T20:53:49.460Z,13.38
2017-10-25T20:56:16.897Z,13.36
2017-10-25T20:58:44.283Z,13.41
2017-10-25T21:01:11.721Z,13.41
2017-10-25T21:03:39.165Z,13.30
2017-10-25T21:06:06.677Z,13.20
2017-10-25T21:08:34.097Z,13.23
2017-10-25T21:11:01.545Z,13.23
2017-10-25T21:13:28.956Z,13.21
2017-10-25T21:15:56.403Z,13.19
2017-10-25T21:18:23.827Z,13.16
2017-10-25T21:20:51.240Z,13.12
2017-10-25T21:23:18.669Z,13.13
2017-10-25T21:25:46.103Z,13.11
2017-10-25T21:28:13.531Z,13.02
2017-10-25T21:30:40.964Z,13.02
2017-10-25T21:33:08.404Z,13.01
2017-10-25T21:35:35.822Z,12.96
2017-10-25T21:38:03.236Z,12.83
2017-10-25T21:40:30.644Z,12.85
2017-10-25T21:42:58.088Z,12.87
2017-10-25T21:45:25.496Z,12.86
2017-10-25T21:47:53.007Z,12.90
2017-10-25T21:50:20.432Z,12.84
2017-10-25T21:52:47.843Z,12.88
2017-10-25T21:55:15.251Z,12.90
2017-10-25T21:57:42.669Z,12.81
2017-10-25T22:00:10.101Z,12.51
2017-10-25T22:02:37.516Z,12.62
2017-10-25T22:05:05.264Z,12.59
2017-10-25T22:07:32.664Z,12.51
2017-10-25T22:10:00.075Z,12.54
2017-10-25T22:12:27.509Z,12.55
2017-10-25T22:14:54.911Z,12.47
2017-10-25T22:17:22.346Z,12.40
2017-10-25T22:19:49.746Z,12.43
2017-10-25T22:22:17.168Z,12.31
2017-10-25T22:24:44.571Z,12.14
2017-10-25T22:27:12.000Z,12.06
2017-10-25T22:29:39.405Z,12.22
2017-10-25T22:32:06.855Z,12.24
2017-10-25T22:34:34.284Z,12.35
2017-10-25T22:37:01.699Z,12.35
2017-10-25T22:39:29.182Z,12.44
2017-10-25T22:41:56.575Z,12.40
2017-10-25T22:44:24.000Z,12.29
2017-10-25T22:46:51.445Z,12.18
2017-10-25T22:49:18.853Z,12.22
2017-10-25T22:51:46.296Z,12.13
2017-10-25T22:54:13.700Z,12.16
2017-10-25T22:56:41.209Z,12.13
2017-10-25T22:59:08.659Z,12.11
2017-10-25T23:01:37.096Z,12.04
2017-10-25T23:04:04.523Z,12.04
2017-10-25T23:06:31.919Z,12.03
2017-10-25T23:08:59.344Z,11.97
2017-10-25T23:11:26.767Z,12.02
2017-10-25T23:13:54.194Z,12.01
2017-10-25T23:16:21.583Z,11.99
2017-10-25T23:18:48.999Z,11.99
2017-10-25T23:21:16.408Z,12.03
2017-10-25T23:23:43.832Z,12.02
2017-10-25T23:26:11.239Z,11.94
2017-10-25T23:28:38.652Z,11.76
2017-10-25T23:31:06.083Z,11.73
2017-10-25T23:33:33.508Z,11.76
2017-10-25T23:36:00.945Z,11.79
2017-10-25T23:38:28.340Z,11.71
2017-10-25T23:40:55.776Z,11.67
2017-10-25T23:43:23.181Z,11.68
2017-10-25T23:45:50.608Z,11.68
2017-10-25T23:48:18.040Z,11.63
2017-10-25T23:50:45.620Z,11.58
2017-10-25T23:53:13.016Z,11.57
2017-10-25T23:55:40.428Z,11.46
2017-10-25T23:58:07.850Z,11.26
